createdAt,value
2018-06-01T00:01:08.812Z,0.00
2018-06-01T00:02:08.870Z,0.00
2018-06-01T00:04:01.873Z,0.00
2018-06-01T00:05:01.935Z,0.00
2018-06-01T00:06:54.934Z,0.00
2018-06-01T00:07:54.994Z,0.00
2018-06-01T00:09:47.999Z,0.00
2018-06-01T00:10:48.058Z,0.00
2018-06-01T00:12:41.067Z,0.00
2018-06-01T00:13:41.121Z,0.00
2018-06-01T00:15:34.127Z,0.00
2018-06-01T00:16:34.185Z,0.00
2018-06-01T00:18:27.693Z,0.00
2018-06-01T00:19:27.757Z,0.00
2018-06-01T00:21:20.761Z,0.00
2018-06-01T00:22:20.825Z,0.00
2018-06-01T00:24:13.830Z,0.00
2018-06-01T00:25:13.990Z,0.00
2018-06-01T00:27:06.880Z,0.00
2018-06-01T00:28:06.948Z,0.00
2018-06-01T00:29:59.955Z,0.00
2018-06-01T00:31:00.011Z,0.00
2018-06-01T00:32:53.013Z,0.00
2018-06-01T00:33:53.074Z,0.00
2018-06-01T00:35:46.078Z,0.00
2018-06-01T00:36:46.137Z,0.00
2018-06-01T00:38:39.134Z,0.00
2018-06-01T00:39:39.200Z,0.00
2018-06-01T00:41:32.212Z,0.00
2018-06-01T00:42:32.263Z,0.00
2018-06-01T00:44:25.291Z,0.00
2018-06-01T00:45:25.324Z,0.00
2018-06-01T00:47:18.325Z,0.00
2018-06-01T00:48:18.389Z,0.00
2018-06-01T00:50:11.390Z,0.00
2018-06-01T00:51:11.450Z,0.00
2018-06-01T00:53:04.444Z,0.00
2018-06-01T00:54:04.510Z,0.00
2018-06-01T00:55:57.512Z,0.00
2018-06-01T00:56:57.574Z,0.00
2018-06-01T00:58:50.573Z,0.00
2018-06-01T00:59:50.632Z,0.00
2018-06-01T01:01:43.638Z,0.00
2018-06-01T01:02:43.698Z,0.00
2018-06-01T01:04:36.695Z,0.00
2018-06-01T01:05:36.754Z,0.00
2018-06-01T01:07:29.749Z,0.00
2018-06-01T01:08:29.813Z,0.00
2018-06-01T01:10:22.821Z,0.00
2018-06-01T01:11:22.878Z,0.00
2018-06-01T01:13:15.875Z,0.00
2018-06-01T01:14:15.941Z,0.00
2018-06-01T01:16:08.947Z,0.00
2018-06-01T01:17:09.005Z,0.00
2018-06-01T01:19:01.998Z,0.00
2018-06-01T01:20:02.065Z,0.00
2018-06-01T01:21:55.066Z,0.00
2018-06-01T01:22:55.122Z,0.00
2018-06-01T01:24:48.128Z,0.00
2018-06-01T01:25:48.187Z,0.00
2018-06-01T01:27:41.186Z,0.00
2018-06-01T01:28:41.247Z,0.00
2018-06-01T01:30:34.248Z,0.00
2018-06-01T01:31:34.309Z,0.00
2018-06-01T01:33:27.307Z,0.00
2018-06-01T01:34:27.376Z,0.00
2018-06-01T01:36:20.380Z,0.00
2018-06-01T01:37:20.440Z,0.00
2018-06-01T01:39:13.944Z,0.00
2018-06-01T01:40:14.008Z,0.00
2018-06-01T01:42:07.010Z,0.00
2018-06-01T01:43:07.068Z,0.00
2018-06-01T01:45:00.069Z,0.00
2018-06-01T01:46:00.128Z,0.00
2018-06-01T01:47:53.122Z,0.00
2018-06-01T01:48:53.188Z,0.00
2018-06-01T01:50:46.189Z,0.00
2018-06-01T01:51:46.245Z,0.00
2018-06-01T01:53:39.241Z,0.00
2018-06-01T01:54:39.308Z,0.00
2018-06-01T01:56:32.309Z,0.00
2018-06-01T01:57:32.368Z,0.00
2018-06-01T01:59:25.361Z,0.00
2018-06-01T02:00:25.427Z,0.00
2018-06-01T02:02:18.429Z,0.00
2018-06-01T02:03:18.488Z,0.00
2018-06-01T02:05:11.488Z,0.00
2018-06-01T02:06:11.547Z,0.00
2018-06-01T02:08:04.545Z,0.00
2018-06-01T02:09:04.608Z,0.00
2018-06-01T02:10:57.609Z,0.00
2018-06-01T02:11:57.669Z,0.00
2018-06-01T02:13:51.172Z,0.00
2018-06-01T02:14:51.236Z,0.00
2018-06-01T02:16:44.238Z,0.00
2018-06-01T02:17:44.295Z,0.00
2018-06-01T02:19:37.289Z,0.00
2018-06-01T02:20:37.360Z,0.00
2018-06-01T02:22:30.354Z,0.00
2018-06-01T02:23:30.414Z,0.00
2018-06-01T02:25:23.415Z,0.00
2018-06-01T02:26:23.472Z,0.00
2018-06-01T02:28:16.466Z,0.00
2018-06-01T02:29:16.533Z,0.00
2018-06-01T02:31:09.532Z,0.00
2018-06-01T02:32:09.590Z,0.00
2018-06-01T02:34:02.585Z,0.00
2018-06-01T02:35:02.647Z,4.00
2018-06-01T02:36:56.161Z,4.00
2018-06-01T02:37:56.215Z,4.00
2018-06-01T02:39:49.210Z,4.00
2018-06-01T02:40:49.275Z,4.00
2018-06-01T02:42:42.277Z,4.00
2018-06-01T02:43:42.334Z,4.00
2018-06-01T02:45:35.334Z,8.00
2018-06-01T02:46:35.396Z,4.00
2018-06-01T02:48:28.386Z,8.00
2018-06-01T02:49:28.453Z,12.00
2018-06-01T02:51:21.452Z,12.00
2018-06-01T02:52:21.511Z,12.00
2018-06-01T02:54:14.505Z,16.00
2018-06-01T02:55:14.569Z,16.00
2018-06-01T02:57:08.079Z,24.00
2018-06-01T02:58:08.137Z,24.00
2018-06-01T03:00:01.133Z,28.00
2018-06-01T03:01:01.214Z,32.00
2018-06-01T03:02:54.196Z,40.00
2018-06-01T03:03:54.254Z,48.00
2018-06-01T03:05:47.255Z,60.00
2018-06-01T03:06:47.318Z,64.00
2018-06-01T03:08:40.316Z,76.00
2018-06-01T03:09:40.375Z,80.00
2018-06-01T03:11:33.375Z,88.00
2018-06-01T03:12:33.437Z,88.00
2018-06-01T03:14:26.436Z,96.00
2018-06-01T03:15:26.497Z,104.00
2018-06-01T03:17:19.501Z,112.00
2018-06-01T03:18:19.563Z,124.00
2018-06-01T03:20:12.556Z,144.00
2018-06-01T03:21:12.620Z,160.00
2018-06-01T03:23:06.621Z,192.00
2018-06-01T03:24:06.680Z,208.00
2018-06-01T03:25:59.681Z,248.00
2018-06-01T03:26:59.737Z,272.00
2018-06-01T03:28:52.737Z,324.00
2018-06-01T03:29:52.796Z,344.00
2018-06-01T03:31:45.802Z,392.00
2018-06-01T03:32:45.857Z,420.00
2018-06-01T03:34:38.858Z,476.00
2018-06-01T03:35:38.919Z,508.00
2018-06-01T03:37:31.925Z,576.00
2018-06-01T03:38:31.985Z,624.00
2018-06-01T03:40:24.976Z,712.00
2018-06-01T03:41:25.041Z,760.00
2018-06-01T03:43:18.042Z,856.00
2018-06-01T03:44:18.101Z,912.00
2018-06-01T03:46:11.103Z,1016.00
2018-06-01T03:47:11.166Z,1072.00
2018-06-01T03:49:04.666Z,1172.00
2018-06-01T03:50:04.730Z,1228.00
2018-06-01T03:51:57.730Z,1352.00
2018-06-01T03:52:57.788Z,1420.00
2018-06-01T03:54:50.783Z,1544.00
2018-06-01T03:55:50.849Z,1604.00
2018-06-01T03:57:43.853Z,1716.00
2018-06-01T03:58:43.910Z,1764.00
2018-06-01T04:00:36.905Z,1848.00
2018-06-01T04:01:36.973Z,1896.00
2018-06-01T04:03:29.976Z,1980.00
2018-06-01T04:04:30.030Z,2020.00
2018-06-01T04:06:23.031Z,2108.00
2018-06-01T04:07:23.090Z,2148.00
2018-06-01T04:09:16.096Z,2232.00
2018-06-01T04:10:16.163Z,2292.00
2018-06-01T04:12:09.160Z,2436.00
2018-06-01T04:13:09.219Z,2532.00
2018-06-01T04:15:02.734Z,2740.00
2018-06-01T04:16:02.797Z,2852.00
2018-06-01T04:17:56.310Z,3056.00
2018-06-01T04:18:56.366Z,3140.00
2018-06-01T04:20:49.388Z,3244.00
2018-06-01T04:21:49.425Z,3272.00
2018-06-01T04:23:42.936Z,3316.00
2018-06-01T04:24:42.992Z,3344.00
2018-06-01T04:26:36.499Z,3432.00
2018-06-01T04:27:36.606Z,3520.00
2018-06-01T04:29:30.063Z,3768.00
2018-06-01T04:30:30.134Z,3944.00
2018-06-01T04:32:23.130Z,4388.00
2018-06-01T04:33:23.190Z,4636.00
2018-06-01T04:35:16.191Z,4956.00
2018-06-01T04:36:16.251Z,5084.00
2018-06-01T04:38:09.273Z,5244.00
2018-06-01T04:39:09.327Z,5284.00
2018-06-01T04:41:02.329Z,5272.00
2018-06-01T04:42:02.392Z,5184.00
2018-06-01T04:43:55.390Z,4984.00
2018-06-01T04:44:55.452Z,5052.00
2018-06-01T04:46:48.454Z,4872.00
2018-06-01T04:47:48.511Z,4848.00
2018-06-01T04:49:41.506Z,4996.00
2018-06-01T04:50:41.638Z,5224.00
2018-06-01T04:52:34.580Z,5704.00
2018-06-01T04:53:34.641Z,5792.00
2018-06-01T04:55:27.638Z,5700.00
2018-06-01T04:56:27.704Z,5816.00
2018-06-01T04:58:20.719Z,6424.00
2018-06-01T04:59:20.782Z,6924.00
2018-06-01T05:01:13.780Z,7660.00
2018-06-01T05:02:13.841Z,7816.00
2018-06-01T05:04:06.849Z,7720.00
2018-06-01T05:05:06.914Z,7600.00
2018-06-01T05:06:59.912Z,7424.00
2018-06-01T05:07:59.976Z,7532.00
2018-06-01T05:09:52.965Z,7792.00
2018-06-01T05:10:53.032Z,7816.00
2018-06-01T05:12:46.041Z,7640.00
2018-06-01T05:13:46.093Z,7508.00
2018-06-01T05:15:39.090Z,7492.00
2018-06-01T05:16:39.186Z,7464.00
2018-06-01T05:18:32.159Z,7052.00
2018-06-01T05:19:32.221Z,6636.00
2018-06-01T05:21:25.219Z,5604.00
2018-06-01T05:22:25.286Z,5140.00
2018-06-01T05:24:18.805Z,4308.00
2018-06-01T05:25:18.861Z,3988.00
2018-06-01T05:27:11.864Z,3616.00
2018-06-01T05:28:11.933Z,3484.00
2018-06-01T05:30:04.930Z,3304.00
2018-06-01T05:31:04.987Z,3236.00
2018-06-01T05:32:58.501Z,3140.00
2018-06-01T05:33:58.557Z,3120.00
2018-06-01T05:35:51.558Z,3128.00
2018-06-01T05:36:51.624Z,3172.00
2018-06-01T05:38:44.625Z,3396.00
2018-06-01T05:39:44.716Z,3636.00
2018-06-01T05:41:37.700Z,4372.00
2018-06-01T05:42:37.750Z,4660.00
2018-06-01T05:44:30.762Z,4668.00
2018-06-01T05:45:30.828Z,4516.00
2018-06-01T05:47:23.850Z,4176.00
2018-06-01T05:48:23.900Z,4092.00
2018-06-01T05:50:16.897Z,4284.00
2018-06-01T05:51:16.965Z,4592.00
2018-06-01T05:53:09.985Z,5512.00
2018-06-01T05:54:10.042Z,6548.00
2018-06-01T05:56:03.551Z,8456.00
2018-06-01T05:57:03.613Z,8728.00
2018-06-01T05:58:57.137Z,9772.00
2018-06-01T05:59:58.259Z,10080.00
2018-06-01T06:01:50.190Z,10340.00
2018-06-01T06:02:50.251Z,10600.00
2018-06-01T06:04:43.254Z,11136.00
2018-06-01T06:05:43.314Z,10320.00
2018-06-01T06:07:39.347Z,9860.00
2018-06-01T06:08:39.409Z,10440.00
2018-06-01T06:10:32.417Z,11812.00
2018-06-01T06:11:32.477Z,11288.00
2018-06-01T06:13:25.482Z,12616.00
2018-06-01T06:14:25.550Z,13916.00
2018-06-01T06:16:18.561Z,16672.00
2018-06-01T06:17:18.608Z,17280.00
2018-06-01T06:19:11.614Z,18784.00
2018-06-01T06:20:11.677Z,18560.00
2018-06-01T06:22:04.692Z,21760.00
2018-06-01T06:23:04.739Z,22112.00
2018-06-01T06:24:58.248Z,22816.00
2018-06-01T06:25:58.315Z,21440.00
2018-06-01T06:27:51.834Z,19264.00
2018-06-01T06:28:51.898Z,18528.00
2018-06-01T06:30:44.894Z,15844.00
2018-06-01T06:31:44.976Z,17440.00
2018-06-01T06:33:37.979Z,24320.00
2018-06-01T06:34:38.042Z,25152.00
2018-06-01T06:36:31.049Z,26304.00
2018-06-01T06:37:31.115Z,26720.00
2018-06-01T06:39:24.127Z,27616.00
2018-06-01T06:40:24.192Z,28672.00
2018-06-01T06:42:17.210Z,30144.00
2018-06-01T06:43:17.272Z,31200.00
2018-06-01T06:45:10.800Z,29920.00
2018-06-01T06:46:10.860Z,32128.00
2018-06-01T06:48:03.882Z,33344.00
2018-06-01T06:49:03.994Z,33280.00
2018-06-01T06:50:56.956Z,36160.00
2018-06-01T06:51:57.029Z,36256.00
2018-06-01T06:53:50.042Z,32608.00
2018-06-01T06:54:50.112Z,31616.00
2018-06-01T06:56:43.117Z,33184.00
2018-06-01T06:57:43.212Z,31904.00
2018-06-01T06:59:36.210Z,32448.00
2018-06-01T07:00:36.316Z,28736.00
2018-06-01T07:02:29.300Z,26848.00
2018-06-01T07:03:29.359Z,23520.00
2018-06-01T07:05:22.370Z,25152.00
2018-06-01T07:06:22.442Z,27040.00
2018-06-01T07:08:15.455Z,20256.00
2018-06-01T07:09:15.524Z,17600.00
2018-06-01T07:11:08.534Z,23072.00
2018-06-01T07:12:08.607Z,23936.00
2018-06-01T07:14:01.622Z,19712.00
2018-06-01T07:15:01.709Z,18048.00
2018-06-01T07:16:54.702Z,13844.00
2018-06-01T07:17:54.775Z,12408.00
2018-06-01T07:19:47.792Z,12668.00
2018-06-01T07:20:47.855Z,13344.00
2018-06-01T07:22:40.885Z,12928.00
2018-06-01T07:23:40.935Z,11884.00
2018-06-01T07:25:33.942Z,10600.00
2018-06-01T07:26:34.014Z,10340.00
2018-06-01T07:28:27.050Z,9888.00
2018-06-01T07:29:27.114Z,9400.00
2018-06-01T07:31:20.121Z,8240.00
2018-06-01T07:32:20.190Z,7808.00
2018-06-01T07:34:13.201Z,7444.00
2018-06-01T07:35:13.266Z,7392.00
2018-06-01T07:37:06.279Z,7280.00
2018-06-01T07:38:06.342Z,7140.00
2018-06-01T07:39:59.351Z,6684.00
2018-06-01T07:40:59.415Z,6356.00
2018-06-01T07:42:52.439Z,5728.00
2018-06-01T07:43:52.488Z,5416.00
2018-06-01T07:45:46.005Z,4848.00
2018-06-01T07:46:46.073Z,4536.00
2018-06-01T07:48:39.080Z,3992.00
2018-06-01T07:49:39.148Z,3780.00
2018-06-01T07:51:32.157Z,3556.00
2018-06-01T07:52:32.228Z,3496.00
2018-06-01T07:54:25.262Z,3348.00
2018-06-01T07:55:25.304Z,3208.00
2018-06-01T07:57:18.309Z,2984.00
2018-06-01T07:58:18.378Z,2948.00
2018-06-01T08:00:11.382Z,2728.00
2018-06-01T08:01:11.447Z,2420.00
2018-06-01T08:03:04.470Z,1824.00
2018-06-01T08:04:04.514Z,1552.00
2018-06-01T08:05:57.518Z,1296.00
2018-06-01T08:06:57.594Z,1252.00
2018-06-01T08:08:50.600Z,864.00
2018-06-01T08:09:50.656Z,684.00
2018-06-01T08:11:43.658Z,640.00
2018-06-01T08:12:43.730Z,804.00
2018-06-01T08:14:36.732Z,1288.00
2018-06-01T08:15:36.794Z,1316.00
2018-06-01T08:17:29.810Z,1124.00
2018-06-01T08:18:29.881Z,1000.00
2018-06-01T08:20:22.930Z,984.00
2018-06-01T08:21:22.948Z,1100.00
2018-06-01T08:23:15.963Z,1664.00
2018-06-01T08:24:16.018Z,1776.00
2018-06-01T08:26:09.011Z,1700.00
2018-06-01T08:27:09.082Z,1544.00
2018-06-01T08:29:02.083Z,844.00
2018-06-01T08:30:02.167Z,788.00
2018-06-01T08:31:55.136Z,620.00
2018-06-01T08:32:55.210Z,552.00
2018-06-01T08:34:48.223Z,596.00
2018-06-01T08:35:48.284Z,560.00
2018-06-01T08:37:41.285Z,608.00
2018-06-01T08:38:41.353Z,716.00
2018-06-01T08:40:34.356Z,852.00
2018-06-01T08:41:34.416Z,932.00
2018-06-01T08:43:27.439Z,1112.00
2018-06-01T08:44:27.485Z,1264.00
2018-06-01T08:46:20.484Z,1736.00
2018-06-01T08:47:20.548Z,1900.00
2018-06-01T08:49:13.550Z,2136.00
2018-06-01T08:50:13.614Z,2252.00
2018-06-01T08:52:06.614Z,2348.00
2018-06-01T08:53:06.681Z,2332.00
2018-06-01T08:54:59.700Z,2108.00
2018-06-01T08:55:59.783Z,1988.00
2018-06-01T08:57:52.760Z,2100.00
2018-06-01T08:58:52.868Z,2316.00
2018-06-01T09:00:45.846Z,2608.00
2018-06-01T09:01:45.916Z,2688.00
2018-06-01T09:03:38.925Z,2836.00
2018-06-01T09:04:38.999Z,2864.00
2018-06-01T09:06:31.981Z,2656.00
2018-06-01T09:07:32.047Z,2460.00
2018-06-01T09:09:25.051Z,2164.00
2018-06-01T09:10:25.164Z,2080.00
2018-06-01T09:12:18.117Z,1904.00
2018-06-01T09:13:18.180Z,1836.00
2018-06-01T09:15:11.195Z,1580.00
2018-06-01T09:16:11.247Z,1452.00
2018-06-01T09:18:04.252Z,1440.00
2018-06-01T09:19:04.317Z,1476.00
2018-06-01T09:20:57.321Z,1644.00
2018-06-01T09:21:57.382Z,1724.00
2018-06-01T09:23:50.402Z,1776.00
2018-06-01T09:24:50.450Z,1840.00
2018-06-01T09:26:43.457Z,2056.00
2018-06-01T09:27:43.572Z,2188.00
2018-06-01T09:29:36.531Z,2456.00
2018-06-01T09:30:36.598Z,2608.00
2018-06-01T09:32:29.598Z,2808.00
2018-06-01T09:33:29.680Z,2896.00
2018-06-01T09:35:22.690Z,3024.00
2018-06-01T09:36:22.742Z,3024.00
2018-06-01T09:38:15.736Z,2968.00
2018-06-01T09:39:15.802Z,2920.00
2018-06-01T09:41:08.817Z,2860.00
2018-06-01T09:42:08.883Z,2832.00
2018-06-01T09:44:01.907Z,2812.00
2018-06-01T09:45:01.953Z,2840.00
2018-06-01T09:46:54.956Z,2924.00
2018-06-01T09:47:55.024Z,2972.00
2018-06-01T09:49:48.131Z,3100.00
2018-06-01T09:50:48.211Z,3148.00
2018-06-01T09:52:41.107Z,3136.00
2018-06-01T09:53:41.253Z,3124.00
2018-06-01T09:55:34.236Z,3156.00
2018-06-01T09:56:34.221Z,3196.00
2018-06-01T09:58:27.232Z,3252.00
2018-06-01T09:59:27.307Z,3268.00
2018-06-01T10:01:20.298Z,3144.00
2018-06-01T10:02:20.544Z,3044.00
2018-06-01T10:04:13.402Z,3016.00
2018-06-01T10:05:13.473Z,3116.00
2018-06-01T10:07:06.489Z,3380.00
2018-06-01T10:08:06.525Z,3456.00
2018-06-01T10:09:59.530Z,3592.00
2018-06-01T10:10:59.578Z,3680.00
2018-06-01T10:12:52.573Z,3708.00
2018-06-01T10:13:52.853Z,3852.00
2018-06-01T10:15:46.155Z,4668.00
2018-06-01T10:16:46.217Z,5236.00
2018-06-01T10:18:39.215Z,6276.00
2018-06-01T10:19:39.273Z,6752.00
2018-06-01T10:21:32.826Z,7864.00
2018-06-01T10:22:32.902Z,8508.00
2018-06-01T10:24:26.396Z,9748.00
2018-06-01T10:25:26.456Z,10372.00
2018-06-01T10:27:19.457Z,11568.00
2018-06-01T10:28:19.521Z,12104.00
2018-06-01T10:30:13.039Z,13052.00
2018-06-01T10:31:13.094Z,13548.00
2018-06-01T10:33:06.605Z,14580.00
2018-06-01T10:34:06.668Z,15164.00
2018-06-01T10:35:59.671Z,16352.00
2018-06-01T10:36:59.735Z,16832.00
2018-06-01T10:38:52.738Z,16800.00
2018-06-01T10:39:52.852Z,16608.00
2018-06-01T10:41:45.895Z,16216.00
2018-06-01T10:42:45.874Z,16156.00
2018-06-01T10:44:38.928Z,16276.00
2018-06-01T10:45:38.970Z,16480.00
2018-06-01T10:47:31.959Z,17088.00
2018-06-01T10:48:32.039Z,17184.00
2018-06-01T10:50:25.035Z,17184.00
2018-06-01T10:51:25.134Z,17120.00
2018-06-01T10:53:18.144Z,15868.00
2018-06-01T10:54:18.179Z,15560.00
2018-06-01T10:56:11.179Z,14516.00
2018-06-01T10:57:11.245Z,13864.00
2018-06-01T10:59:04.270Z,12780.00
2018-06-01T11:00:04.324Z,12268.00
2018-06-01T11:01:57.337Z,11840.00
2018-06-01T11:02:57.395Z,10840.00
2018-06-01T11:04:50.404Z,10416.00
2018-06-01T11:05:50.467Z,10516.00
2018-06-01T11:07:43.469Z,11308.00
2018-06-01T11:08:43.537Z,12444.00
2018-06-01T11:10:36.550Z,12944.00
2018-06-01T11:11:36.609Z,12520.00
2018-06-01T11:13:29.621Z,12136.00
2018-06-01T11:14:29.703Z,11720.00
2018-06-01T11:16:22.690Z,11508.00
2018-06-01T11:17:22.755Z,11824.00
2018-06-01T11:19:15.763Z,11136.00
2018-06-01T11:20:15.828Z,10152.00
2018-06-01T11:22:08.836Z,10928.00
2018-06-01T11:23:08.902Z,11552.00
2018-06-01T11:25:01.919Z,11564.00
2018-06-01T11:26:01.992Z,12664.00
2018-06-01T11:27:54.983Z,15344.00
2018-06-01T11:28:55.052Z,15164.00
2018-06-01T11:30:48.060Z,13676.00
2018-06-01T11:31:48.134Z,12296.00
2018-06-01T11:33:41.129Z,12576.00
2018-06-01T11:34:41.196Z,14488.00
2018-06-01T11:36:34.211Z,13996.00
2018-06-01T11:37:34.276Z,14104.00
2018-06-01T11:39:27.280Z,13444.00
2018-06-01T11:40:27.348Z,12464.00
2018-06-01T11:42:20.361Z,12344.00
2018-06-01T11:43:20.421Z,14016.00
2018-06-01T11:45:13.428Z,14020.00
2018-06-01T11:46:13.521Z,14108.00
2018-06-01T11:48:06.500Z,12972.00
2018-06-01T11:49:06.564Z,12016.00
2018-06-01T11:50:59.580Z,11476.00
2018-06-01T11:51:59.646Z,11132.00
2018-06-01T11:53:52.650Z,9888.00
2018-06-01T11:54:52.909Z,9300.00
2018-06-01T11:56:45.724Z,8668.00
2018-06-01T11:57:46.743Z,8628.00
2018-06-01T11:59:38.798Z,8840.00
2018-06-01T12:00:38.865Z,8752.00
2018-06-01T12:02:31.877Z,8292.00
2018-06-01T12:03:31.939Z,8228.00
2018-06-01T12:05:24.951Z,8564.00
2018-06-01T12:06:25.025Z,8972.00
2018-06-01T12:08:18.024Z,9496.00
2018-06-01T12:09:18.093Z,9280.00
2018-06-01T12:11:11.153Z,8536.00
2018-06-01T12:12:11.177Z,8372.00
2018-06-01T12:14:04.175Z,9104.00
2018-06-01T12:15:04.239Z,9540.00
2018-06-01T12:16:57.261Z,10592.00
2018-06-01T12:17:57.325Z,11360.00
2018-06-01T12:19:50.326Z,12132.00
2018-06-01T12:20:50.395Z,13180.00
2018-06-01T12:22:43.408Z,14268.00
2018-06-01T12:23:43.468Z,15092.00
2018-06-01T12:25:36.478Z,17024.00
2018-06-01T12:26:36.545Z,16832.00
2018-06-01T12:28:29.576Z,17664.00
2018-06-01T12:29:29.718Z,17312.00
2018-06-01T12:31:22.653Z,15016.00
2018-06-01T12:32:22.716Z,14464.00
2018-06-01T12:34:15.730Z,12840.00
2018-06-01T12:35:15.801Z,12144.00
2018-06-01T12:37:08.810Z,10964.00
2018-06-01T12:38:08.865Z,11240.00
2018-06-01T12:40:01.925Z,12160.00
2018-06-01T12:41:01.982Z,11892.00
2018-06-01T12:42:54.953Z,10432.00
2018-06-01T12:43:55.018Z,9404.00
2018-06-01T12:45:48.028Z,7132.00
2018-06-01T12:46:48.122Z,6408.00
2018-06-01T12:48:41.105Z,5852.00
2018-06-01T12:49:41.189Z,5664.00
2018-06-01T12:51:34.207Z,5760.00
2018-06-01T12:52:34.250Z,6048.00
2018-06-01T12:54:27.769Z,6884.00
2018-06-01T12:55:27.821Z,7552.00
2018-06-01T12:57:21.345Z,9988.00
2018-06-01T12:58:21.407Z,10724.00
2018-06-01T13:00:14.414Z,11144.00
2018-06-01T13:01:14.484Z,11128.00
2018-06-01T13:03:07.490Z,12120.00
2018-06-01T13:04:07.616Z,12512.00
2018-06-01T13:06:00.564Z,12424.00
2018-06-01T13:07:00.631Z,12768.00
2018-06-01T13:08:53.709Z,10916.00
2018-06-01T13:09:53.707Z,11200.00
2018-06-01T13:11:46.728Z,11592.00
2018-06-01T13:12:46.789Z,10732.00
2018-06-01T13:14:39.803Z,9500.00
2018-06-01T13:15:39.870Z,9700.00
2018-06-01T13:17:32.888Z,11400.00
2018-06-01T13:18:32.974Z,12528.00
2018-06-01T13:20:25.991Z,13836.00
2018-06-01T13:21:26.040Z,14528.00
2018-06-01T13:23:19.070Z,14764.00
2018-06-01T13:24:19.133Z,14496.00
2018-06-01T13:26:12.144Z,13204.00
2018-06-01T13:27:12.233Z,11976.00
2018-06-01T13:29:05.214Z,9792.00
2018-06-01T13:30:05.280Z,8524.00
2018-06-01T13:31:58.318Z,7072.00
2018-06-01T13:32:58.373Z,6788.00
2018-06-01T13:34:51.389Z,6232.00
2018-06-01T13:35:51.453Z,5940.00
2018-06-01T13:37:44.471Z,5988.00
2018-06-01T13:38:44.533Z,6264.00
2018-06-01T13:40:37.542Z,8104.00
2018-06-01T13:41:37.613Z,8376.00
2018-06-01T13:43:30.629Z,7992.00
2018-06-01T13:44:30.680Z,7708.00
2018-06-01T13:46:23.687Z,7464.00
2018-06-01T13:47:23.752Z,7660.00
2018-06-01T13:49:16.757Z,8428.00
2018-06-01T13:50:16.824Z,8412.00
2018-06-01T13:52:09.845Z,7980.00
2018-06-01T13:53:09.905Z,7784.00
2018-06-01T13:55:02.912Z,7616.00
2018-06-01T13:56:02.973Z,7400.00
2018-06-01T13:57:55.980Z,6952.00
2018-06-01T13:58:56.045Z,6784.00
2018-06-01T14:00:49.054Z,6764.00
2018-06-01T14:01:49.118Z,6908.00
2018-06-01T14:03:42.124Z,7212.00
2018-06-01T14:04:42.188Z,7332.00
2018-06-01T14:06:35.198Z,7740.00
2018-06-01T14:07:35.263Z,7976.00
2018-06-01T14:09:28.313Z,7924.00
2018-06-01T14:10:28.339Z,7628.00
2018-06-01T14:12:21.352Z,7108.00
2018-06-01T14:13:21.412Z,7088.00
2018-06-01T14:15:14.411Z,7512.00
2018-06-01T14:16:14.480Z,7820.00
2018-06-01T14:18:07.488Z,8056.00
2018-06-01T14:19:07.555Z,8008.00
2018-06-01T14:21:01.063Z,7836.00
2018-06-01T14:22:01.135Z,7688.00
2018-06-01T14:23:54.653Z,7320.00
2018-06-01T14:24:54.712Z,7092.00
2018-06-01T14:26:47.725Z,6676.00
2018-06-01T14:27:47.784Z,6484.00
2018-06-01T14:29:41.294Z,6288.00
2018-06-01T14:30:41.364Z,6232.00
2018-06-01T14:32:34.370Z,6116.00
2018-06-01T14:33:34.434Z,6048.00
2018-06-01T14:35:27.439Z,5896.00
2018-06-01T14:36:27.510Z,5800.00
2018-06-01T14:38:21.024Z,5632.00
2018-06-01T14:39:21.088Z,5540.00
2018-06-01T14:41:14.088Z,5376.00
2018-06-01T14:42:14.159Z,5300.00
2018-06-01T14:44:07.163Z,5168.00
2018-06-01T14:45:07.228Z,5108.00
2018-06-01T14:47:00.800Z,5008.00
2018-06-01T14:48:00.805Z,4956.00
2018-06-01T14:49:53.814Z,4824.00
2018-06-01T14:50:53.881Z,4788.00
2018-06-01T14:52:48.444Z,4772.00
2018-06-01T14:53:48.471Z,4808.00
2018-06-01T14:55:41.470Z,5072.00
2018-06-01T14:56:41.540Z,5272.00
2018-06-01T14:58:35.065Z,5592.00
2018-06-01T14:59:35.126Z,5684.00
2018-06-01T15:01:28.635Z,5572.00
2018-06-01T15:02:28.714Z,5548.00
2018-06-01T15:04:22.221Z,6000.00
2018-06-01T15:05:22.283Z,6348.00
2018-06-01T15:07:15.292Z,6828.00
2018-06-01T15:08:15.393Z,6968.00
2018-06-01T15:10:08.361Z,7416.00
2018-06-01T15:11:08.430Z,7852.00
2018-06-01T15:13:01.437Z,8960.00
2018-06-01T15:14:01.592Z,9540.00
2018-06-01T15:15:54.499Z,10212.00
2018-06-01T15:16:54.569Z,10544.00
2018-06-01T15:18:47.584Z,10872.00
2018-06-01T15:19:47.647Z,10916.00
2018-06-01T15:21:42.159Z,10960.00
2018-06-01T15:22:42.226Z,10980.00
2018-06-01T15:24:35.232Z,11108.00
2018-06-01T15:25:35.297Z,11124.00
2018-06-01T15:27:28.316Z,10888.00
2018-06-01T15:28:28.375Z,10716.00
2018-06-01T15:30:21.376Z,10444.00
2018-06-01T15:31:21.443Z,10284.00
2018-06-01T15:33:14.451Z,9756.00
2018-06-01T15:34:14.516Z,9508.00
2018-06-01T15:36:08.637Z,9180.00
2018-06-01T15:37:07.587Z,9148.00
2018-06-01T15:39:00.596Z,9224.00
2018-06-01T15:40:00.658Z,9200.00
2018-06-01T15:41:53.660Z,9184.00
2018-06-01T15:42:53.732Z,9236.00
2018-06-01T15:44:46.740Z,9280.00
2018-06-01T15:45:46.801Z,9328.00
2018-06-01T15:47:39.803Z,9336.00
2018-06-01T15:48:39.873Z,9324.00
2018-06-01T15:50:32.879Z,9156.00
2018-06-01T15:51:32.953Z,9060.00
2018-06-01T15:53:25.956Z,8956.00
2018-06-01T15:54:26.021Z,8944.00
2018-06-01T15:56:19.030Z,8840.00
2018-06-01T15:57:19.091Z,8848.00
2018-06-01T15:59:12.102Z,8732.00
2018-06-01T16:00:12.164Z,8428.00
2018-06-01T16:02:05.168Z,7880.00
2018-06-01T16:03:05.233Z,7640.00
2018-06-01T16:04:58.241Z,7192.00
2018-06-01T16:05:58.306Z,7020.00
2018-06-01T16:07:51.318Z,6816.00
2018-06-01T16:08:51.388Z,6816.00
2018-06-01T16:10:44.395Z,6800.00
2018-06-01T16:11:44.462Z,6836.00
2018-06-01T16:13:37.485Z,6920.00
2018-06-01T16:14:37.537Z,6848.00
2018-06-01T16:16:30.549Z,5208.00
2018-06-01T16:17:30.619Z,4308.00
2018-06-01T16:19:24.131Z,3124.00
2018-06-01T16:20:24.198Z,2772.00
2018-06-01T16:22:17.701Z,2488.00
2018-06-01T16:23:17.768Z,2456.00
2018-06-01T16:25:10.782Z,2576.00
2018-06-01T16:26:10.845Z,2688.00
2018-06-01T16:28:03.848Z,3020.00
2018-06-01T16:29:03.913Z,3204.00
2018-06-01T16:30:56.925Z,3596.00
2018-06-01T16:31:56.986Z,3704.00
2018-06-01T16:33:49.987Z,3396.00
2018-06-01T16:34:50.055Z,2784.00
2018-06-01T16:36:43.063Z,1796.00
2018-06-01T16:37:43.155Z,1420.00
2018-06-01T16:39:36.140Z,620.00
2018-06-01T16:40:36.205Z,384.00
2018-06-01T16:42:29.206Z,268.00
2018-06-01T16:43:29.271Z,308.00
2018-06-01T16:45:22.278Z,568.00
2018-06-01T16:46:22.343Z,724.00
2018-06-01T16:48:15.350Z,968.00
2018-06-01T16:49:15.418Z,1124.00
2018-06-01T16:51:08.433Z,1436.00
2018-06-01T16:52:08.484Z,1504.00
2018-06-01T16:54:01.485Z,1832.00
2018-06-01T16:55:01.554Z,1844.00
2018-06-01T16:56:54.559Z,1516.00
2018-06-01T16:57:54.623Z,1328.00
2018-06-01T16:59:47.625Z,1176.00
2018-06-01T17:00:47.692Z,1144.00
2018-06-01T17:02:40.695Z,1160.00
2018-06-01T17:03:40.760Z,1152.00
2018-06-01T17:05:33.761Z,1136.00
2018-06-01T17:06:33.816Z,1128.00
2018-06-01T17:08:28.322Z,1144.00
2018-06-01T17:09:28.386Z,1148.00
2018-06-01T17:11:21.392Z,912.00
2018-06-01T17:12:21.457Z,832.00
2018-06-01T17:14:14.458Z,924.00
2018-06-01T17:15:14.523Z,956.00
2018-06-01T17:17:08.041Z,888.00
2018-06-01T17:18:08.101Z,748.00
2018-06-01T17:20:01.106Z,536.00
2018-06-01T17:21:01.172Z,460.00
2018-06-01T17:22:54.174Z,372.00
2018-06-01T17:23:54.238Z,380.00
2018-06-01T17:25:47.241Z,372.00
2018-06-01T17:26:47.303Z,368.00
2018-06-01T17:28:40.300Z,496.00
2018-06-01T17:29:40.372Z,476.00
2018-06-01T17:31:33.377Z,556.00
2018-06-01T17:32:33.442Z,568.00
2018-06-01T17:34:26.439Z,652.00
2018-06-01T17:35:26.505Z,628.00
2018-06-01T17:37:19.508Z,588.00
2018-06-01T17:38:19.573Z,600.00
2018-06-01T17:40:12.600Z,636.00